Flight Track Log - Related Links

Times and Time Zones

All times are in EDT time to prevent confusion due to time zone crossing. See the KAP29 flight status page for this flight to view local times or setup timezone preferences in your user account.

Time Position Orientation Groundspeed Altitude Reporting Facility
EDT Latitude Longitude Course Direction KTS MPH feet Rate Location/Type
Fri 01:30:48 PM 42.3667 -71.0000 340° North 106 122 300  Level KA90
Fri 01:31:36 PM 42.4000 -71.0167 340° North 128 147 1,200 1,000 Climbing KA90
Fri 01:32:36 PM 42.4333 -71.0333 340° North 150 173 2,100 1,000 Climbing KA90
Fri 01:33:36 PM 42.4833 -71.0667 334° Northwest 159 183 3,200 850 Climbing KA90
Fri 01:34:36 PM 42.5167 -71.0833 340° North 156 180 3,800 600 Climbing KA90
Fri 01:35:36 PM 42.5500 -71.1167 324° Northwest 153 176 4,400 567 Climbing KA90
Fri 01:36:43 PM 42.6000 -71.1500 334° Northwest 153 176 5,000 524 Climbing KA90
Fri 01:37:42 PM 42.6333 -71.1833 324° Northwest 152 175 5,500 504 Climbing KA90
Fri 01:38:42 PM 42.6667 -71.2167 324° Northwest 154 177 6,000 550 Climbing KA90
Fri 01:39:42 PM 42.7000 -71.2333 340° North 157 181 6,600 550 Climbing KA90
Fri 01:40:42 PM 42.7333 -71.2667 324° Northwest 152 175 7,100 450 Climbing KA90
Fri 01:41:42 PM 42.7667 -71.3167 312° West 156 180 7,500 500 Climbing KA90
Fri 01:42:42 PM 42.8000 -71.3667 312° West 156 180 8,100 263 Climbing KA90
Fri 01:43:36 PM 42.8333 -71.4000 324° Northwest 172 198 8,000 -53 Descending KA90
Fri 01:44:36 PM 42.8667 -71.4500 312° West 179 206 8,000  Level KA90
Fri 01:45:36 PM 42.9000 -71.5000 312° West 183 211 8,000  Level KA90
Fri 01:46:36 PM 42.9333 -71.5500 312° West 185 213 8,000  Level KA90
Fri 01:47:11 PM 42.9514 -71.5806 309° West 183 211 8,000  Level Boston Center
Fri 01:48:11 PM 42.9831 -71.6256 314° West 197 227 8,000  Level Boston Center
Fri 01:49:11 PM 43.0147 -71.6678 316° Northwest 190 219 8,000  Level Boston Center
Fri 01:50:11 PM 43.0525 -71.7242 313° West 185 213 8,000  Level Boston Center
Fri 01:51:11 PM 43.0819 -71.7636 316° Northwest 180 207 8,000  Level Boston Center
Fri 01:52:11 PM 43.1197 -71.8172 314° West 180 207 8,000  Level Boston Center
Fri 01:53:11 PM 43.1514 -71.8594 316° Northwest 180 207 8,000  Level Boston Center
Fri 01:54:11 PM 43.1869 -71.9133 312° West 180 207 8,000  Level Boston Center
Fri 01:55:11 PM 43.2183 -71.9558 315° West 180 207 8,000  Level Boston Center
Fri 01:56:11 PM 43.2561 -72.0097 314° West 180 207 8,000  Level Boston Center
Fri 01:57:11 PM 43.2856 -72.0522 314° West 180 207 8,000  Level Boston Center
Fri 01:58:11 PM 43.3231 -72.1061 314° West 175 201 8,000  Level Boston Center
Fri 01:59:11 PM 43.3544 -72.1489 315° West 175 201 8,000  Level Boston Center
Fri 02:00:11 PM 43.3900 -72.2000 314° West 175 201 8,000  Level Boston Center
Fri 02:01:11 PM 43.4256 -72.2514 314° West 170 196 8,000  Level Boston Center
Fri 02:02:11 PM 43.4589 -72.2969 315° West 170 196 8,000  Level Boston Center
Fri 02:03:11 PM 43.4925 -72.3456 314° West 170 196 8,000  Level Boston Center
Fri 02:04:11 PM 43.5258 -72.3942 313° West 170 196 8,000  Level Boston Center
Fri 02:05:11 PM 43.5592 -72.4431 313° West 170 196 8,000  Level Boston Center
Fri 02:06:11 PM 43.5925 -72.4889 315° West 170 196 8,000  Level Boston Center
Fri 02:07:11 PM 43.6236 -72.5347 313° West 170 196 8,000 250 Level Boston Center
Fri 02:08:11 PM 43.6550 -72.5808 313° West 170 196 8,500 500 Climbing Boston Center
Fri 02:09:11 PM 43.6839 -72.6211 315° West 164 189 9,000 300 Climbing Boston Center
Fri 02:10:11 PM 43.7089 -72.6556 315° West 158 182 9,100 50 Climbing Boston Center
Fri 02:11:11 PM 43.7358 -72.7017 309° West 164 189 9,100  Level Boston Center
Fri 02:12:11 PM 43.7753 -72.7622 312° West 172 198 9,100  Level Boston Center
Fri 02:13:11 PM 43.8128 -72.8083 318° Northwest 177 204 9,100  Level Boston Center
Fri 02:14:11 PM 43.8417 -72.8544 311° West 177 204 9,100  Level Boston Center
Fri 02:15:11 PM 43.8750 -72.9008 315° West 171 197 9,100  Level Boston Center
Fri 02:16:11 PM 43.9061 -72.9472 313° West 171 197 9,100  Level Boston Center
Fri 02:17:11 PM 43.9369 -72.9936 313° West 164 189 9,100  Level Boston Center
Fri 02:18:11 PM 43.9639 -73.0342 313° West 164 189 9,100  Level Boston Center
Fri 02:19:23 PM 43.9928 -73.0778 313° West 159 183 9,100  Level Boston Center
Fri 02:20:23 PM 44.0322 -73.1331 315° West 159 183 9,100  Level Boston Center
Fri 02:21:23 PM 44.0611 -73.1767 313° West 159 183 9,100  Level Boston Center
Fri 02:22:23 PM 44.0961 -73.2264 314° West 159 183 9,100  Level Boston Center
Fri 02:23:23 PM 44.1269 -73.2731 313° West 159 183 9,100  Level Boston Center
Fri 02:24:23 PM 44.1600 -73.3197 315° West 159 183 9,100  Level Boston Center
Fri 02:25:35 PM 44.1950 -73.3725 313° West 164 189 9,100  Level Boston Center
Fri 02:26:35 PM 44.2300 -73.4250 313° West 169 194 9,100  Level Boston Center
Fri 02:27:35 PM 44.2567 -73.4661 312° West 169 194 9,100  Level Boston Center
Fri 02:28:35 PM 44.2897 -73.5103 316° Northwest 169 194 9,100  Level Boston Center
Fri 02:29:35 PM 44.3183 -73.5542 312° West 164 189 9,100 -100 Level Boston Center
Fri 02:30:35 PM 44.3492 -73.6042 311° West 164 189 8,900 -300 Descending Boston Center
Fri 02:31:35 PM 44.3819 -73.6514 314° West 164 189 8,500 -400 Descending Boston Center
Fri 02:32:35 PM 44.4147 -73.7014 313° West 169 194 8,100 -500 Descending Boston Center
Fri 02:33:35 PM 44.4539 -73.7606 313° West 184 212 7,500 -600 Descending Boston Center
Fri 02:34:35 PM 44.4886 -73.8136 313° West 191 220 6,900 -650 Descending Boston Center
Fri 02:35:35 PM 44.5275 -73.8669 316° Northwest 191 220 6,200 -550 Descending Boston Center
Fri 02:36:35 PM 44.5517 -73.9317 298° West 191 220 5,800 -350 Descending Boston Center
Fri 02:37:35 PM 44.5653 -73.9989 286° West 185 213 5,500 -400 Descending Boston Center
Fri 02:38:35 PM 44.5397 -74.0506 235° Southwest 148 170 5,000 -700 Descending Boston Center
Fri 02:39:35 PM 44.5058 -74.0875 218° Southwest 148 170 4,100 -550 Descending Boston Center
Fri 02:40:35 PM 44.4783 -74.1189 219° Southwest 143 165 3,900 -400 Descending Boston Center
Fri 02:41:35 PM 44.4486 -74.1442 211° Southwest 143 165 3,300 -550 Descending Boston Center
Fri 02:42:35 PM 44.4256 -74.1667 215° Southwest 127 146 2,800 -400 Descending Boston Center
Fri 02:43:35 PM 44.3981 -74.1981 219° Southwest 127 146 2,500 -300 Descending Boston Center
Fri 02:45:00 PM 44.3833 -74.2000 237° Southwest  Level FlightAware
Fri 02:52:00 PM 44.3853 -74.2062 237° Southwest  Level Estimated
Fri 02:53:00 PM 44.3833 -74.2000 237° Southwest  Level FlightAware
Fri 02:54:00 PM 44.3853 -74.2062 237° Southwest  Level Estimated
Fri 02:55:00 PM 44.3833 -74.2000 237° Southwest  Level FlightAware
Fri 02:56:00 PM 44.3853 -74.2062 237° Southwest  Level Estimated
Fri 02:57:00 PM 44.3833 -74.2000 237° Southwest  Level FlightAware
Fri 02:58:00 PM 44.3853 -74.2062 237° Southwest  Level Estimated
Fri 02:59:00 PM 44.3833 -74.2000 237° Southwest  Level FlightAware
Fri 03:00:00 PM 44.3853 -74.2062 237° Southwest  Level Estimated

Login

Don't have an account? Register now (free) for customized features, flight alerts, and more!